createdAt,value
2023-07-02T00:01:05.202Z,27.02
2023-07-02T00:04:10.499Z,26.74
2023-07-02T00:07:02.581Z,26.51
2023-07-02T00:09:36.596Z,26.38
2023-07-02T00:12:17.154Z,26.28
2023-07-02T00:18:02.367Z,26.17
2023-07-02T00:26:33.018Z,25.93
2023-07-02T00:29:11.807Z,25.85
2023-07-02T00:32:04.280Z,25.85
2023-07-02T00:34:34.307Z,25.80
2023-07-02T00:37:04.474Z,25.88
2023-07-02T00:39:34.779Z,25.91
2023-07-02T00:42:07.274Z,25.88
2023-07-02T00:48:06.726Z,25.75
2023-07-02T00:51:08.746Z,25.70
2023-07-02T00:56:34.818Z,25.62
2023-07-02T01:06:15.353Z,25.48
2023-07-02T01:08:40.171Z,25.41
2023-07-02T01:11:13.938Z,25.37
2023-07-02T01:18:08.941Z,25.37
2023-07-02T01:21:08.424Z,25.47
2023-07-02T01:24:16.850Z,25.51
2023-07-02T01:30:12.228Z,25.48
2023-07-02T01:33:09.968Z,25.50
2023-07-02T01:36:11.796Z,25.64
2023-07-02T01:39:11.476Z,25.77
2023-07-02T01:41:47.832Z,25.81
2023-07-02T01:47:12.811Z,25.86
2023-07-02T01:50:13.191Z,25.85
2023-07-02T01:52:47.415Z,25.80
2023-07-02T01:55:15.957Z,25.78
2023-07-02T01:58:38.514Z,25.78
2023-07-02T02:01:12.715Z,25.80
2023-07-02T02:03:42.096Z,25.79
2023-07-02T02:06:13.726Z,25.81
2023-07-02T02:08:42.555Z,25.84
2023-07-02T02:11:10.877Z,25.82
2023-07-02T02:13:48.398Z,25.81
2023-07-02T02:16:42.429Z,25.79
2023-07-02T02:19:15.093Z,25.78
2023-07-02T02:21:44.450Z,25.75
2023-07-02T02:24:14.300Z,25.74
2023-07-02T02:26:48.466Z,25.68
2023-07-02T02:29:19.893Z,25.63
2023-07-02T02:31:48.605Z,25.58
2023-07-02T02:34:17.167Z,25.56
2023-07-02T02:36:45.845Z,25.52
2023-07-02T02:39:17.085Z,25.47
2023-07-02T02:41:45.739Z,25.42
2023-07-02T02:44:14.467Z,25.36
2023-07-02T02:46:45.961Z,25.33
2023-07-02T02:49:16.157Z,25.26
2023-07-02T02:51:47.728Z,25.18
2023-07-02T02:54:17.371Z,25.13
2023-07-02T02:56:48.826Z,25.08
2023-07-02T02:59:19.647Z,25.02
2023-07-02T03:01:50.024Z,24.95
2023-07-02T03:09:48.129Z,24.69
2023-07-02T03:12:18.269Z,24.62
2023-07-02T03:14:53.699Z,24.54
2023-07-02T03:17:54.367Z,24.45
2023-07-02T03:20:49.028Z,24.35
2023-07-02T03:26:18.718Z,24.21
2023-07-02T03:28:50.040Z,24.16
2023-07-02T03:34:50.287Z,24.03
2023-07-02T03:37:48.989Z,23.94
2023-07-02T03:42:55.687Z,23.80
2023-07-02T03:45:51.689Z,23.76
2023-07-02T03:51:51.351Z,23.59
2023-07-02T03:56:57.562Z,23.45
2023-07-02T03:59:57.978Z,23.42
2023-07-02T04:02:54.288Z,23.35
2023-07-02T04:05:54.429Z,23.26
2023-07-02T04:08:24.044Z,23.17
2023-07-02T04:10:55.660Z,23.12
2023-07-02T04:13:24.292Z,23.11
2023-07-02T04:15:52.806Z,23.11
2023-07-02T04:18:24.441Z,23.10
2023-07-02T04:20:57.677Z,23.09
2023-07-02T04:23:26.303Z,23.07
2023-07-02T04:26:03.281Z,23.08
2023-07-02T04:29:25.751Z,23.06
2023-07-02T04:31:57.521Z,22.97
2023-07-02T04:34:26.677Z,22.92
2023-07-02T04:36:55.877Z,22.88
2023-07-02T04:41:55.744Z,22.83
2023-07-02T04:44:31.139Z,22.79
2023-07-02T04:49:57.761Z,22.73
2023-07-02T04:52:26.262Z,22.70
2023-07-02T04:54:57.999Z,22.67
2023-07-02T04:57:26.292Z,22.66
2023-07-02T04:59:56.622Z,22.62
2023-07-02T05:02:28.116Z,22.59
2023-07-02T05:05:37.401Z,22.56
2023-07-02T05:07:57.931Z,22.52
2023-07-02T05:10:28.062Z,22.47
2023-07-02T05:15:57.757Z,22.37
2023-07-02T05:18:29.166Z,22.30
2023-07-02T05:20:58.046Z,22.24
2023-07-02T05:25:59.882Z,22.17
2023-07-02T05:28:29.470Z,22.16
2023-07-02T05:31:14.444Z,22.10
2023-07-02T05:34:00.207Z,21.99
2023-07-02T05:39:11.045Z,21.81
2023-07-02T05:42:00.140Z,21.83
2023-07-02T05:44:31.491Z,21.80
2023-07-02T05:47:00.007Z,21.80
2023-07-02T05:49:31.721Z,21.80
2023-07-02T05:54:43.672Z,21.73
2023-07-02T05:57:32.651Z,21.72
2023-07-02T06:00:38.237Z,21.67
2023-07-02T06:05:43.536Z,21.62
2023-07-02T06:09:34.667Z,21.61
2023-07-02T06:15:31.343Z,21.51
2023-07-02T06:20:34.067Z,21.43
2023-07-02T06:30:36.719Z,21.35
2023-07-02T06:33:40.659Z,21.34
2023-07-02T06:36:41.218Z,21.34
2023-07-02T06:39:34.048Z,21.32
2023-07-02T06:42:35.149Z,21.29
2023-07-02T06:45:33.232Z,21.20
2023-07-02T06:54:34.807Z,21.13
2023-07-02T06:57:06.633Z,21.10
2023-07-02T06:59:34.996Z,21.07
2023-07-02T07:02:37.111Z,21.10
2023-07-02T07:05:35.124Z,21.06
2023-07-02T07:08:06.613Z,21.07
2023-07-02T07:16:35.208Z,21.06
2023-07-02T07:19:07.240Z,20.99
2023-07-02T07:24:38.665Z,20.88
2023-07-02T07:27:35.530Z,20.85
2023-07-02T07:30:07.867Z,20.84
2023-07-02T07:35:07.442Z,20.78
2023-07-02T07:37:36.043Z,20.69
2023-07-02T07:40:09.100Z,20.59
2023-07-02T07:42:37.368Z,20.51
2023-07-02T07:48:38.354Z,20.33
2023-07-02T07:51:37.995Z,20.31
2023-07-02T07:57:40.038Z,20.20
2023-07-02T08:03:23.174Z,20.11
2023-07-02T08:06:40.575Z,20.10
2023-07-02T08:11:44.108Z,19.98
2023-07-02T08:14:13.037Z,19.98
2023-07-02T08:16:41.321Z,19.99
2023-07-02T08:19:41.645Z,19.97
2023-07-02T08:24:45.417Z,19.94
2023-07-02T08:30:40.933Z,19.97
2023-07-02T08:33:39.926Z,19.97
2023-07-02T08:36:11.492Z,19.95
2023-07-02T08:38:43.825Z,19.92
2023-07-02T08:45:12.429Z,19.85
2023-07-02T08:47:40.734Z,19.83
2023-07-02T08:50:11.654Z,19.83
2023-07-02T08:52:44.895Z,19.83
2023-07-02T08:55:13.370Z,19.84
2023-07-02T09:00:42.604Z,19.83
2023-07-02T09:03:17.737Z,19.84
2023-07-02T09:06:14.411Z,19.84
2023-07-02T09:08:43.015Z,19.81
2023-07-02T09:11:13.774Z,19.82
2023-07-02T09:14:14.261Z,19.82
2023-07-02T09:16:43.393Z,19.73
2023-07-02T09:19:14.772Z,19.67
2023-07-02T09:27:13.194Z,19.39
2023-07-02T09:29:44.699Z,19.36
2023-07-02T09:32:13.170Z,19.34
2023-07-02T09:34:44.630Z,19.33
2023-07-02T09:37:14.122Z,19.35
2023-07-02T09:39:45.863Z,19.37
2023-07-02T09:42:15.797Z,19.38
2023-07-02T09:44:45.161Z,19.41
2023-07-02T09:47:15.196Z,19.43
2023-07-02T09:50:16.780Z,19.45
2023-07-02T09:52:48.077Z,19.43
2023-07-02T09:55:17.585Z,19.43
2023-07-02T09:57:46.852Z,19.41
2023-07-02T10:00:17.192Z,19.38
2023-07-02T10:05:46.449Z,19.29
2023-07-02T10:08:19.019Z,19.26
2023-07-02T10:10:47.864Z,19.25
2023-07-02T10:13:17.197Z,19.26
2023-07-02T10:15:45.517Z,19.24
2023-07-02T10:18:17.054Z,19.22
2023-07-02T10:20:45.452Z,19.21
2023-07-02T10:23:16.628Z,19.21
2023-07-02T10:25:46.255Z,19.19
2023-07-02T10:28:26.244Z,19.16
2023-07-02T10:31:17.860Z,19.08
2023-07-02T10:33:47.228Z,19.08
2023-07-02T10:38:48.056Z,19.09
2023-07-02T10:41:30.331Z,19.10
2023-07-02T10:44:30.473Z,19.05
2023-07-02T10:47:17.292Z,19.02
2023-07-02T10:49:47.842Z,19.02
2023-07-02T10:52:19.153Z,19.03
2023-07-02T10:54:49.400Z,19.07
2023-07-02T10:57:24.406Z,19.26
2023-07-02T11:02:49.676Z,19.24
2023-07-02T11:05:18.230Z,19.14
2023-07-02T11:07:48.087Z,19.08
2023-07-02T11:10:22.721Z,19.07
2023-07-02T11:12:51.090Z,19.08
2023-07-02T11:15:20.372Z,19.11
2023-07-02T11:17:48.857Z,19.07
2023-07-02T11:20:19.171Z,18.99
2023-07-02T11:22:50.556Z,18.94
2023-07-02T11:25:22.145Z,18.88
2023-07-02T11:27:50.612Z,18.84
2023-07-02T11:30:19.234Z,18.84
2023-07-02T11:33:26.431Z,18.82
2023-07-02T11:35:51.607Z,18.76
2023-07-02T11:38:20.041Z,18.73
2023-07-02T11:40:51.516Z,18.71
2023-07-02T11:43:20.891Z,18.72
2023-07-02T11:45:52.111Z,18.70
2023-07-02T11:48:20.700Z,18.65
2023-07-02T11:50:49.003Z,18.60
2023-07-02T11:53:21.095Z,18.60
2023-07-02T11:55:52.794Z,18.61
2023-07-02T11:58:21.306Z,18.61
2023-07-02T12:00:52.499Z,18.60
2023-07-02T12:03:20.593Z,18.54
2023-07-02T12:05:52.369Z,18.56
2023-07-02T12:08:20.977Z,18.53
2023-07-02T12:10:52.644Z,18.51
2023-07-02T12:13:22.906Z,18.47
2023-07-02T12:15:53.192Z,18.45
2023-07-02T12:18:21.493Z,18.43
2023-07-02T12:20:52.772Z,18.43
2023-07-02T12:23:21.094Z,18.42
2023-07-02T12:25:52.688Z,18.38
2023-07-02T12:28:24.046Z,18.36
2023-07-02T12:30:52.522Z,18.33
2023-07-02T12:33:24.009Z,18.31
2023-07-02T12:35:52.785Z,18.33
2023-07-02T12:38:24.243Z,18.31
2023-07-02T12:40:52.775Z,18.28
2023-07-02T12:43:24.221Z,18.26
2023-07-02T12:45:53.440Z,18.24
2023-07-02T12:48:24.610Z,18.21
2023-07-02T12:54:22.779Z,18.16
2023-07-02T12:56:51.317Z,18.19
2023-07-02T12:59:23.332Z,18.29
2023-07-02T13:01:54.761Z,18.36
2023-07-02T13:04:23.317Z,18.39
2023-07-02T13:06:53.041Z,18.55
2023-07-02T13:09:24.385Z,18.56
2023-07-02T13:11:53.077Z,18.49
2023-07-02T13:14:24.357Z,18.43
2023-07-02T13:16:54.080Z,18.40
2023-07-02T13:19:25.408Z,18.37
2023-07-02T13:21:53.703Z,18.36
2023-07-02T13:24:25.225Z,18.34
2023-07-02T13:26:56.811Z,18.33
2023-07-02T13:29:25.086Z,18.34
2023-07-02T13:31:56.371Z,18.36
2023-07-02T13:34:24.850Z,18.37
2023-07-02T13:36:56.214Z,18.41
2023-07-02T13:39:24.608Z,18.54
2023-07-02T13:41:56.039Z,18.63
2023-07-02T13:44:24.490Z,18.68
2023-07-02T13:46:59.731Z,18.73
2023-07-02T13:49:31.145Z,18.77
2023-07-02T13:52:34.174Z,18.85
2023-07-02T13:54:58.911Z,18.86
2023-07-02T13:57:27.303Z,18.93
2023-07-02T13:59:55.622Z,18.96
2023-07-02T14:02:27.347Z,18.96
2023-07-02T14:04:56.564Z,18.94
2023-07-02T14:07:26.903Z,18.92
2023-07-02T14:09:57.384Z,18.89
2023-07-02T14:12:25.747Z,18.90
2023-07-02T14:14:54.036Z,18.90
2023-07-02T14:17:24.518Z,18.90
2023-07-02T14:19:54.532Z,18.94
2023-07-02T14:22:22.922Z,18.96
2023-07-02T14:24:54.288Z,18.98
2023-07-02T14:27:23.287Z,18.99
2023-07-02T14:29:51.793Z,19.00
2023-07-02T14:32:20.525Z,19.03
2023-07-02T14:34:48.872Z,19.07
2023-07-02T14:37:17.237Z,19.08
2023-07-02T14:39:57.227Z,19.09
2023-07-02T14:42:29.947Z,19.19
2023-07-02T14:44:58.414Z,19.21
2023-07-02T14:47:26.742Z,19.25
2023-07-02T14:49:55.047Z,19.31
2023-07-02T14:52:23.386Z,19.37
2023-07-02T14:54:51.903Z,19.43
2023-07-02T14:57:21.096Z,19.49
2023-07-02T14:59:51.488Z,19.57
2023-07-02T15:02:25.602Z,19.63
2023-07-02T15:04:56.629Z,19.67
2023-07-02T15:07:24.629Z,19.72
2023-07-02T15:09:53.081Z,19.83
2023-07-02T15:12:23.272Z,19.94
2023-07-02T15:14:57.232Z,20.05
2023-07-02T15:17:26.116Z,20.16
2023-07-02T15:19:54.530Z,20.29
2023-07-02T15:22:22.896Z,20.36
2023-07-02T15:24:56.807Z,20.44
2023-07-02T15:27:28.872Z,20.55
2023-07-02T15:29:57.308Z,20.63
2023-07-02T15:32:26.381Z,20.72
2023-07-02T15:34:58.387Z,20.82
2023-07-02T15:37:29.919Z,20.90
2023-07-02T15:39:59.064Z,20.94
2023-07-02T15:42:31.538Z,20.98
2023-07-02T15:45:00.147Z,21.03
2023-07-02T15:47:29.926Z,21.12
2023-07-02T15:49:59.923Z,21.22
2023-07-02T15:52:28.568Z,21.31
2023-07-02T15:54:56.981Z,21.41
2023-07-02T15:57:25.396Z,21.47
2023-07-02T15:59:59.862Z,21.48
2023-07-02T16:02:28.236Z,21.49
2023-07-02T16:04:57.712Z,21.51
2023-07-02T16:07:26.243Z,21.52
2023-07-02T16:09:54.699Z,21.52
2023-07-02T16:12:23.428Z,21.56
2023-07-02T16:14:51.740Z,21.56
2023-07-02T16:17:20.308Z,21.54
2023-07-02T16:19:49.178Z,21.61
2023-07-02T16:22:18.062Z,21.67
2023-07-02T16:24:46.777Z,21.74
2023-07-02T16:27:15.855Z,21.80
2023-07-02T16:29:46.306Z,21.87
2023-07-02T16:32:37.671Z,21.93
2023-07-02T16:35:06.311Z,22.03
2023-07-02T16:37:34.918Z,22.11
2023-07-02T16:40:05.115Z,22.17
2023-07-02T16:45:07.822Z,22.33
2023-07-02T16:47:36.739Z,22.44
2023-07-02T16:50:05.540Z,22.51
2023-07-02T16:53:07.547Z,22.55
2023-07-02T16:56:01.803Z,22.60
2023-07-02T16:58:34.410Z,22.71
2023-07-02T17:01:35.031Z,22.73
2023-07-02T17:04:06.473Z,22.74
2023-07-02T17:06:34.826Z,22.68
2023-07-02T17:10:05.250Z,22.69
2023-07-02T17:12:36.254Z,22.79
2023-07-02T17:15:04.802Z,22.88
2023-07-02T17:17:35.801Z,22.90
2023-07-02T17:20:06.351Z,22.84
2023-07-02T17:22:35.207Z,22.87
2023-07-02T17:25:07.626Z,22.96
2023-07-02T17:27:37.185Z,23.05
2023-07-02T17:30:08.792Z,23.14
2023-07-02T17:32:37.207Z,23.16
2023-07-02T17:35:06.398Z,23.11
2023-07-02T17:37:38.011Z,23.03
2023-07-02T17:40:08.191Z,23.03
2023-07-02T17:42:37.466Z,23.05
2023-07-02T17:45:06.295Z,23.10
2023-07-02T17:47:38.881Z,23.26
2023-07-02T17:50:07.737Z,23.37
2023-07-02T17:52:39.747Z,23.43
2023-07-02T17:55:08.519Z,23.48
2023-07-02T17:57:40.136Z,23.48
2023-07-02T18:00:09.954Z,23.50
2023-07-02T18:02:42.498Z,23.42
2023-07-02T18:05:12.462Z,23.41
2023-07-02T18:07:40.859Z,23.43
2023-07-02T18:10:09.459Z,23.43
2023-07-02T18:12:38.024Z,23.42
2023-07-02T18:15:10.064Z,23.43
2023-07-02T18:17:38.949Z,23.37
2023-07-02T18:20:11.145Z,23.35
2023-07-02T18:22:39.511Z,23.47
2023-07-02T18:25:10.486Z,23.52
2023-07-02T18:27:38.902Z,23.57
2023-07-02T18:30:10.965Z,23.62
2023-07-02T18:32:39.405Z,23.70
2023-07-02T18:35:11.264Z,23.79
2023-07-02T18:37:39.530Z,23.92
2023-07-02T18:40:11.399Z,24.09
2023-07-02T18:42:42.455Z,24.25
2023-07-02T18:45:11.006Z,24.33
2023-07-02T18:47:40.137Z,24.36
2023-07-02T18:50:11.892Z,24.40
2023-07-02T18:52:42.609Z,24.41
2023-07-02T18:55:11.941Z,24.42
2023-07-02T19:00:12.789Z,24.49
2023-07-02T19:02:41.842Z,24.52
2023-07-02T19:05:12.061Z,24.50
2023-07-02T19:07:43.143Z,24.48
2023-07-02T19:10:12.987Z,24.47
2023-07-02T19:12:43.736Z,24.50
2023-07-02T19:15:12.724Z,24.65
2023-07-02T19:17:45.428Z,24.79
2023-07-02T19:23:14.913Z,24.87
2023-07-02T19:25:43.371Z,24.97
2023-07-02T19:28:15.686Z,24.97
2023-07-02T19:30:43.975Z,24.97
2023-07-02T19:33:12.559Z,24.95
2023-07-02T19:35:43.500Z,24.93
2023-07-02T19:38:15.489Z,24.93
2023-07-02T19:40:43.755Z,25.06
2023-07-02T19:43:13.954Z,25.12
2023-07-02T19:45:45.213Z,25.14
2023-07-02T19:48:33.731Z,25.15
2023-07-02T19:51:15.988Z,25.22
2023-07-02T19:53:44.519Z,25.32
2023-07-02T19:56:15.792Z,25.42
2023-07-02T19:58:47.959Z,25.45
2023-07-02T20:03:51.867Z,25.62
2023-07-02T20:06:52.860Z,25.92
2023-07-02T20:09:47.045Z,26.07
2023-07-02T20:21:45.668Z,25.88
2023-07-02T20:24:17.025Z,25.94
2023-07-02T20:26:51.051Z,26.05
2023-07-02T20:29:45.883Z,26.06
2023-07-02T20:32:47.030Z,26.03
2023-07-02T20:35:17.834Z,26.03
2023-07-02T20:37:51.816Z,26.01
2023-07-02T20:43:49.216Z,26.11
2023-07-02T20:46:22.848Z,26.07
2023-07-02T20:48:51.749Z,26.19
2023-07-02T20:54:49.080Z,26.18
2023-07-02T20:57:20.748Z,26.24
2023-07-02T21:10:49.894Z,26.87
2023-07-02T21:19:22.841Z,26.98
2023-07-02T21:21:52.987Z,27.05
2023-07-02T21:27:50.760Z,27.11
2023-07-02T21:30:25.291Z,27.26
2023-07-02T21:32:53.808Z,27.38
2023-07-02T21:40:54.165Z,27.13
2023-07-02T21:51:54.671Z,27.34
2023-07-02T21:54:54.895Z,27.39
2023-07-02T21:57:54.735Z,27.35
2023-07-02T22:03:24.186Z,27.21
2023-07-02T22:05:56.755Z,27.17
2023-07-02T22:08:56.582Z,27.24
2023-07-02T22:14:41.906Z,27.13
2023-07-02T22:17:56.112Z,27.17
2023-07-02T22:26:55.423Z,26.77
2023-07-02T22:35:00.261Z,26.61
2023-07-02T22:37:31.381Z,26.50
2023-07-02T22:40:00.157Z,26.45
2023-07-02T22:42:28.521Z,26.38
2023-07-02T22:44:59.604Z,26.37
2023-07-02T22:47:33.397Z,26.33
2023-07-02T22:50:02.372Z,26.34
2023-07-02T22:52:31.063Z,26.38
2023-07-02T22:54:59.911Z,26.36
2023-07-02T22:57:33.979Z,26.31
2023-07-02T23:00:03.539Z,26.29
2023-07-02T23:02:31.936Z,26.26
2023-07-02T23:05:00.614Z,26.24
2023-07-02T23:07:32.097Z,26.19
2023-07-02T23:10:01.350Z,26.14
2023-07-02T23:12:33.018Z,26.10
2023-07-02T23:15:01.436Z,26.07
2023-07-02T23:17:32.759Z,26.09
2023-07-02T23:20:02.335Z,26.19
2023-07-02T23:22:30.677Z,26.13
2023-07-02T23:25:02.341Z,26.02
2023-07-02T23:27:40.609Z,25.97
2023-07-02T23:30:37.245Z,26.00
2023-07-02T23:33:31.832Z,26.01
2023-07-02T23:36:03.163Z,26.04
2023-07-02T23:38:35.159Z,26.10
2023-07-02T23:41:03.735Z,26.18
2023-07-02T23:43:35.321Z,26.23
2023-07-02T23:46:03.613Z,26.25
2023-07-02T23:48:34.902Z,26.23
2023-07-02T23:51:03.455Z,26.28
2023-07-02T23:53:34.800Z,26.28
2023-07-02T23:56:04.067Z,26.24
2023-07-02T23:58:35.565Z,26.20
